Disclaimer

Please do not use the information listed here in-flight or in-navigation, as they are not provided to us by the airports but are provided by volunteers, so they might be outdated.

Search


Regions


Airport information page

Radio informations:
TWR/APP - 118.1 MHz
RDO - 5859 MHz
FIRE - 121.9 MHz

Airport informations:
Latitude: 22° 22' 33.43" N
Longitude: 031° 36' 42.20" E
Elevation: 616 feet - 188 meters
Operating hours: Remarks
Operating agency: Civil government, landing fees and diplomatic clearance may be required
Timezone: UTC+2(+3DT) - Dates notified by NOTAM
Fuel: Unknown fuel type or whether there is any fuel.

Runway information:
15/33 - 9843 x 148 feet< - >3000 x 45 meters

Recent METARs:
HEBL 160100Z 31006KT CAVOK 13/01 Q1016 NOSIG
HEBL 160200Z 31005KT CAVOK 13/01 Q1016 NOSIG
HEBL 160200Z 31005KT CAVOK 13/01 Q1016 NOSIG

Airport on the map: